createdAt,value
2018-09-17T00:00:08.217Z,95834.20
2018-09-17T00:02:34.560Z,95833.63
2018-09-17T00:05:00.881Z,95829.02
2018-09-17T00:07:28.164Z,95834.20
2018-09-17T00:09:54.528Z,95834.92
2018-09-17T00:12:21.451Z,95838.89
2018-09-17T00:14:47.819Z,95842.70
2018-09-17T00:17:14.213Z,95838.97
2018-09-17T00:19:40.534Z,95846.42
2018-09-17T00:22:07.901Z,95840.25
2018-09-17T00:24:34.274Z,95845.52
2018-09-17T00:27:00.646Z,95843.84
2018-09-17T00:29:26.984Z,95842.75
2018-09-17T00:31:53.317Z,95841.45
2018-09-17T00:34:19.660Z,95842.70
2018-09-17T00:36:45.995Z,95844.59
2018-09-17T00:39:12.334Z,95844.07
2018-09-17T00:41:38.703Z,95842.48
2018-09-17T00:44:05.063Z,95844.22
2018-09-17T00:46:31.530Z,95847.59
2018-09-17T00:48:57.895Z,95843.05
2018-09-17T00:51:24.229Z,95839.19
2018-09-17T00:53:50.631Z,95837.18
2018-09-17T00:56:16.957Z,95841.91
2018-09-17T00:58:44.808Z,95843.69
2018-09-17T01:01:11.180Z,95837.82
2018-09-17T01:03:37.565Z,95835.50
2018-09-17T01:06:05.017Z,95848.75
2018-09-17T01:08:32.313Z,95845.14
2018-09-17T01:10:58.652Z,95843.52
2018-09-17T01:13:25.607Z,95847.65
2018-09-17T01:15:51.980Z,95841.98
2018-09-17T01:18:18.325Z,95845.42
2018-09-17T01:20:44.712Z,95842.80
2018-09-17T01:23:11.050Z,95842.09
2018-09-17T01:25:37.411Z,95842.95
2018-09-17T01:28:03.749Z,95840.30
2018-09-17T01:30:31.917Z,95839.52
2018-09-17T01:33:02.664Z,95836.46
2018-09-17T01:35:29.531Z,95841.55
2018-09-17T01:37:55.880Z,95835.44
2018-09-17T01:40:22.230Z,95840.20
2018-09-17T01:42:48.556Z,95837.88
2018-09-17T01:45:15.940Z,95834.09
2018-09-17T01:47:42.334Z,95834.83
2018-09-17T01:50:08.845Z,95827.02
2018-09-17T01:52:35.203Z,95830.34
2018-09-17T01:55:01.534Z,95827.15
2018-09-17T01:57:27.910Z,95832.09
2018-09-17T01:59:54.258Z,95826.70
2018-09-17T02:02:20.610Z,95826.45
2018-09-17T02:04:46.956Z,95823.41
2018-09-17T02:07:13.316Z,95813.07
2018-09-17T02:09:43.264Z,95816.43
2018-09-17T02:12:09.674Z,95813.45
2018-09-17T02:14:36.034Z,95814.17
2018-09-17T02:17:02.368Z,95813.41
2018-09-17T02:19:28.725Z,95817.50
2018-09-17T02:21:55.169Z,95811.60
2018-09-17T02:24:21.528Z,95818.71
2018-09-17T02:26:48.071Z,95816.95
2018-09-17T02:29:15.209Z,95826.44
2018-09-17T02:31:41.566Z,95829.34
2018-09-17T02:34:07.948Z,95824.25
2018-09-17T02:36:36.680Z,95826.44
2018-09-17T02:39:03.110Z,95828.86
2018-09-17T02:41:29.627Z,95831.09
2018-09-17T02:43:57.707Z,95821.58
2018-09-17T02:46:24.102Z,95832.06
2018-09-17T02:48:50.499Z,95831.61
2018-09-17T02:51:16.836Z,95830.84
2018-09-17T02:53:43.236Z,95836.37
2018-09-17T02:56:09.686Z,95826.41
2018-09-17T02:58:36.111Z,95827.83
2018-09-17T03:01:02.488Z,95832.30
2018-09-17T03:03:30.570Z,95831.19
2018-09-17T03:05:56.948Z,95834.04
2018-09-17T03:08:23.292Z,95834.59
2018-09-17T03:10:50.555Z,95835.05
2018-09-17T03:13:16.900Z,95834.88
2018-09-17T03:15:43.240Z,95843.92
2018-09-17T03:18:10.990Z,95847.70
2018-09-17T03:20:37.353Z,95848.67
2018-09-17T03:23:03.731Z,95847.08
2018-09-17T03:25:32.334Z,95857.84
2018-09-17T03:27:58.748Z,95855.20
2018-09-17T03:30:26.160Z,95853.07
2018-09-17T03:32:52.538Z,95852.48
2018-09-17T03:35:18.893Z,95856.33
2018-09-17T03:37:45.400Z,95860.78
2018-09-17T03:40:11.898Z,95861.47
2018-09-17T03:42:38.289Z,95856.47
2018-09-17T03:45:04.676Z,95857.89
2018-09-17T03:47:31.095Z,95857.53
2018-09-17T03:50:02.461Z,95858.62
2018-09-17T03:52:28.824Z,95862.05
2018-09-17T03:54:55.160Z,95855.11
2018-09-17T03:57:23.911Z,95859.51
2018-09-17T03:59:50.244Z,95860.76
2018-09-17T04:02:16.582Z,95864.20
2018-09-17T04:04:42.932Z,95866.33
2018-09-17T04:07:15.085Z,95864.61
2018-09-17T04:09:41.499Z,95864.87
2018-09-17T04:14:39.925Z,95865.39
2018-09-17T04:17:06.256Z,95870.66
2018-09-17T04:19:32.770Z,95865.94
2018-09-17T04:21:59.204Z,95864.30
2018-09-17T04:24:29.260Z,95866.62
2018-09-17T04:26:55.605Z,95868.29
2018-09-17T04:29:22.032Z,95870.86
2018-09-17T04:31:48.408Z,95872.11
2018-09-17T04:34:14.744Z,95863.25
2018-09-17T04:36:41.074Z,95868.70
2018-09-17T04:39:07.401Z,95877.63
2018-09-17T04:41:33.720Z,95876.33
2018-09-17T04:44:00.125Z,95878.95
2018-09-17T04:46:28.171Z,95880.89
2018-09-17T04:48:54.587Z,95885.58
2018-09-17T04:51:20.942Z,95875.59
2018-09-17T04:53:47.348Z,95878.58
2018-09-17T04:56:13.685Z,95884.52
2018-09-17T04:58:40.183Z,95888.44
2018-09-17T05:01:06.622Z,95887.05
2018-09-17T05:03:34.040Z,95878.51
2018-09-17T05:06:04.088Z,95887.56
2018-09-17T05:08:30.487Z,95886.14
2018-09-17T05:10:59.230Z,95882.48
2018-09-17T05:13:25.752Z,95882.84
2018-09-17T05:15:51.979Z,95886.02
2018-09-17T05:18:18.530Z,95892.68
2018-09-17T05:20:44.951Z,95894.02
2018-09-17T05:23:11.444Z,95892.52
2018-09-17T05:25:40.131Z,95889.16
2018-09-17T05:28:06.503Z,95882.43
2018-09-17T05:30:32.820Z,95889.24
2018-09-17T05:33:01.440Z,95877.25
2018-09-17T05:35:27.769Z,95884.00
2018-09-17T05:37:54.095Z,95884.23
2018-09-17T05:40:20.469Z,95891.27
2018-09-17T05:42:46.787Z,95897.92
2018-09-17T05:45:13.123Z,95890.70
2018-09-17T05:47:39.499Z,95885.06
2018-09-17T05:50:06.710Z,95894.38
2018-09-17T05:52:33.068Z,95890.89
2018-09-17T05:54:59.495Z,95894.83
2018-09-17T05:57:26.463Z,95891.31
2018-09-17T05:59:53.510Z,95896.53
2018-09-17T06:02:19.896Z,95897.74
2018-09-17T06:04:46.257Z,95894.56
2018-09-17T06:07:12.725Z,95900.36
2018-09-17T06:09:39.276Z,95896.23
2018-09-17T06:12:06.725Z,95901.49
2018-09-17T06:14:33.170Z,95905.55
2018-09-17T06:16:59.510Z,95904.83
2018-09-17T06:19:28.331Z,95904.67
2018-09-17T06:21:54.697Z,95910.36
2018-09-17T06:24:21.057Z,95906.00
2018-09-17T06:26:47.449Z,95906.91
2018-09-17T06:29:13.846Z,95903.88
2018-09-17T06:31:40.654Z,95912.12
2018-09-17T06:34:07.957Z,95915.05
2018-09-17T06:36:34.456Z,95916.60
2018-09-17T06:39:02.931Z,95920.05
2018-09-17T06:41:29.420Z,95916.86
2018-09-17T06:43:55.847Z,95915.30
2018-09-17T06:46:22.274Z,95909.36
2018-09-17T06:48:48.631Z,95908.47
2018-09-17T06:51:14.968Z,95912.23
2018-09-17T06:53:41.401Z,95916.59
2018-09-17T06:56:07.911Z,95917.00
2018-09-17T06:58:34.284Z,95920.91
2018-09-17T07:01:00.665Z,95921.70
2018-09-17T07:03:28.725Z,95921.89
2018-09-17T07:05:55.071Z,95933.55
2018-09-17T07:08:21.459Z,95931.31
2018-09-17T07:10:48.301Z,95929.08
2018-09-17T07:13:14.776Z,95934.57
2018-09-17T07:15:41.938Z,95936.16
2018-09-17T07:18:09.027Z,95939.87
2018-09-17T07:20:35.508Z,95932.59
2018-09-17T07:23:04.792Z,95934.55
2018-09-17T07:25:32.384Z,95938.65
2018-09-17T07:28:00.865Z,95936.10
2018-09-17T07:30:27.261Z,95929.42
2018-09-17T07:32:53.637Z,95940.41
2018-09-17T07:35:21.011Z,95942.03
2018-09-17T07:37:47.347Z,95930.59
2018-09-17T07:40:13.707Z,95932.14
2018-09-17T07:42:40.219Z,95937.59
2018-09-17T07:45:06.618Z,95935.46
2018-09-17T07:47:35.842Z,95931.55
2018-09-17T07:50:03.308Z,95927.45
2018-09-17T07:52:29.776Z,95925.31
2018-09-17T07:54:59.649Z,95921.37
2018-09-17T07:57:26.124Z,95919.83
2018-09-17T07:59:52.658Z,95914.89
2018-09-17T08:02:19.192Z,95916.56
2018-09-17T08:04:45.557Z,95914.25
2018-09-17T08:07:12.020Z,95912.97
2018-09-17T08:09:38.358Z,95909.98
2018-09-17T08:12:04.747Z,95906.83
2018-09-17T08:14:32.315Z,95903.30
2018-09-17T08:17:00.843Z,95897.94
2018-09-17T08:19:27.286Z,95896.64
2018-09-17T08:21:53.615Z,95890.45
2018-09-17T08:24:21.143Z,95890.78
2018-09-17T08:26:47.490Z,95890.58
2018-09-17T08:29:14.121Z,95885.67
2018-09-17T08:31:40.611Z,95882.38
2018-09-17T08:34:08.174Z,95883.80
2018-09-17T08:36:37.055Z,95879.43
2018-09-17T08:39:04.286Z,95874.09
2018-09-17T08:41:30.638Z,95874.25
2018-09-17T08:43:57.139Z,95864.59
2018-09-17T08:46:23.605Z,95865.05
2018-09-17T08:48:50.014Z,95867.63
2018-09-17T08:51:16.438Z,95870.42
2018-09-17T08:53:43.005Z,95869.33
2018-09-17T08:56:09.382Z,95865.66
2018-09-17T08:58:35.735Z,95864.79
2018-09-17T09:01:08.858Z,95861.95
2018-09-17T09:03:35.259Z,95859.13
2018-09-17T09:06:01.627Z,95861.52
2018-09-17T09:08:28.704Z,95847.31
2018-09-17T09:10:55.047Z,95847.63
2018-09-17T09:13:21.430Z,95842.83
2018-09-17T09:15:47.828Z,95845.44
2018-09-17T09:18:14.184Z,95833.97
2018-09-17T09:20:40.522Z,95840.00
2018-09-17T09:23:06.922Z,95830.20
2018-09-17T09:25:33.263Z,95834.15
2018-09-17T09:27:59.657Z,95828.44
2018-09-17T09:30:25.998Z,95824.82
2018-09-17T09:32:52.417Z,95825.44
2018-09-17T09:35:20.383Z,95823.05
2018-09-17T09:38:05.707Z,95823.87
2018-09-17T09:40:32.124Z,95820.00
2018-09-17T09:42:58.597Z,95816.22
2018-09-17T09:45:24.933Z,95809.63
2018-09-17T09:47:52.429Z,95806.36
2018-09-17T09:50:18.872Z,95805.23
2018-09-17T09:52:45.212Z,95798.25
2018-09-17T09:55:11.581Z,95804.27
2018-09-17T09:57:37.966Z,95801.92
2018-09-17T10:00:04.324Z,95797.73
2018-09-17T10:02:32.216Z,95800.59
2018-09-17T10:04:58.569Z,95797.45
2018-09-17T10:07:25.773Z,95799.11
2018-09-17T10:09:52.910Z,95795.77
2018-09-17T10:12:19.275Z,95795.25
2018-09-17T10:14:45.702Z,95799.35
2018-09-17T10:17:13.911Z,95793.55
2018-09-17T10:19:40.280Z,95784.08
2018-09-17T10:22:07.522Z,95785.34
2018-09-17T10:24:33.898Z,95785.80
2018-09-17T10:27:00.486Z,95780.31
2018-09-17T10:29:27.150Z,95784.73
2018-09-17T10:31:53.660Z,95785.02
2018-09-17T10:34:20.073Z,95785.30
2018-09-17T10:36:46.446Z,95784.61
2018-09-17T10:39:12.812Z,95780.27
2018-09-17T10:41:39.828Z,95779.75
2018-09-17T10:44:06.913Z,95778.93
2018-09-17T10:46:33.960Z,95771.67
2018-09-17T10:49:00.307Z,95774.53
2018-09-17T10:51:26.651Z,95775.11
2018-09-17T10:53:53.002Z,95771.75
2018-09-17T10:56:19.375Z,95766.64
2018-09-17T10:58:45.739Z,95762.52
2018-09-17T11:01:12.106Z,95761.59
2018-09-17T11:03:41.340Z,95756.44
2018-09-17T11:06:07.794Z,95762.47
2018-09-17T11:08:34.198Z,95753.88
2018-09-17T11:11:03.790Z,95754.70
2018-09-17T11:13:31.087Z,95755.84
2018-09-17T11:15:57.803Z,95752.53
2018-09-17T11:18:24.197Z,95747.13
2018-09-17T11:20:50.567Z,95752.77
2018-09-17T11:23:16.913Z,95745.60
2018-09-17T11:25:43.270Z,95750.95
2018-09-17T11:28:09.592Z,95742.24
2018-09-17T11:30:35.987Z,95751.60
2018-09-17T11:33:04.421Z,95746.58
2018-09-17T11:35:30.815Z,95747.55
2018-09-17T11:37:57.174Z,95746.66
2018-09-17T11:40:24.319Z,95745.23
2018-09-17T11:42:50.673Z,95746.95
2018-09-17T11:45:17.023Z,95749.72
2018-09-17T11:47:43.415Z,95746.14
2018-09-17T11:50:11.551Z,95745.36
2018-09-17T11:52:37.937Z,95748.34
2018-09-17T11:55:05.033Z,95742.73
2018-09-17T11:57:31.402Z,95738.20
2018-09-17T11:59:58.949Z,95732.16
2018-09-17T12:02:25.272Z,95729.81
2018-09-17T12:04:51.626Z,95726.14
2018-09-17T12:07:17.952Z,95722.03
2018-09-17T12:09:44.877Z,95720.39
2018-09-17T12:12:11.226Z,95717.87
2018-09-17T12:14:37.557Z,95720.80
2018-09-17T12:17:05.076Z,95721.67
2018-09-17T12:19:31.425Z,95717.52
2018-09-17T12:21:57.782Z,95711.92
2018-09-17T12:24:24.185Z,95713.45
2018-09-17T12:26:50.562Z,95708.88
2018-09-17T12:29:18.478Z,95709.67
2018-09-17T12:31:44.882Z,95706.93
2018-09-17T12:34:11.339Z,95705.50
2018-09-17T12:36:38.798Z,95707.48
2018-09-17T12:39:05.128Z,95701.58
2018-09-17T12:41:31.597Z,95699.30
2018-09-17T12:43:58.106Z,95690.59
2018-09-17T12:46:25.241Z,95692.06
2018-09-17T12:48:51.612Z,95690.02
2018-09-17T12:51:21.525Z,95691.52
2018-09-17T12:53:48.118Z,95682.18
2018-09-17T12:56:14.459Z,95684.69
2018-09-17T12:58:41.977Z,95681.36
2018-09-17T13:01:09.121Z,95677.14
2018-09-17T13:03:36.051Z,95680.00
2018-09-17T13:06:02.512Z,95672.05
2018-09-17T13:08:29.022Z,95676.88
2018-09-17T13:10:55.447Z,95671.05
2018-09-17T13:13:23.317Z,95666.91
2018-09-17T13:15:49.673Z,95663.82
2018-09-17T13:18:17.497Z,95662.32
2018-09-17T13:20:43.889Z,95657.89
2018-09-17T13:23:10.259Z,95660.19
2018-09-17T13:25:36.617Z,95653.00
2018-09-17T13:28:03.004Z,95653.13
2018-09-17T13:30:29.560Z,95648.94
2018-09-17T13:32:56.837Z,95651.70
2018-09-17T13:35:23.193Z,95648.15
2018-09-17T13:37:49.544Z,95650.42
2018-09-17T13:40:15.942Z,95648.30
2018-09-17T13:42:42.334Z,95648.30
2018-09-17T13:45:08.661Z,95650.23
2018-09-17T13:47:35.215Z,95646.75
2018-09-17T13:50:01.592Z,95644.83
2018-09-17T13:52:28.176Z,95641.60
2018-09-17T13:54:55.771Z,95641.60
2018-09-17T13:57:23.263Z,95640.92
2018-09-17T13:59:49.619Z,95633.16
2018-09-17T14:02:16.025Z,95632.94
2018-09-17T14:04:42.404Z,95629.23
2018-09-17T14:07:11.262Z,95625.45
2018-09-17T14:09:37.616Z,95621.47
2018-09-17T14:12:03.972Z,95618.40
2018-09-17T14:14:30.367Z,95610.77
2018-09-17T14:16:56.765Z,95610.75
2018-09-17T14:19:23.191Z,95611.50
2018-09-17T14:21:49.581Z,95612.63
2018-09-17T14:24:20.365Z,95611.52
2018-09-17T14:26:46.802Z,95611.02
2018-09-17T14:29:13.176Z,95617.02
2018-09-17T14:31:39.695Z,95609.84
2018-09-17T14:34:06.056Z,95609.59
2018-09-17T14:36:32.474Z,95606.73
2018-09-17T14:38:58.848Z,95610.23
2018-09-17T14:41:25.214Z,95614.88
2018-09-17T14:43:52.434Z,95613.77
2018-09-17T14:46:19.956Z,95615.16
2018-09-17T14:48:46.327Z,95613.35
2018-09-17T14:51:12.755Z,95607.25
2018-09-17T14:53:41.515Z,95609.47
2018-09-17T14:56:07.840Z,95607.23
2018-09-17T14:58:34.247Z,95603.80
2018-09-17T15:01:00.682Z,95613.53
2018-09-17T15:03:27.006Z,95610.48
2018-09-17T15:05:53.383Z,95606.34
2018-09-17T15:08:19.850Z,95610.06
2018-09-17T15:10:46.175Z,95613.72
2018-09-17T15:13:16.145Z,95612.05
2018-09-17T15:15:42.548Z,95618.08
2018-09-17T15:18:08.924Z,95615.17
2018-09-17T15:20:35.278Z,95608.17
2018-09-17T15:23:01.693Z,95610.22
2018-09-17T15:25:28.104Z,95612.41
2018-09-17T15:27:54.455Z,95612.00
2018-09-17T15:30:20.838Z,95612.75
2018-09-17T15:32:47.186Z,95616.44
2018-09-17T15:35:13.556Z,95616.62
2018-09-17T15:37:40.601Z,95624.37
2018-09-17T15:40:06.943Z,95622.90
2018-09-17T15:42:33.280Z,95625.20
2018-09-17T15:44:59.651Z,95623.54
2018-09-17T15:47:25.987Z,95625.43
2018-09-17T15:49:52.408Z,95622.94
2018-09-17T15:52:18.772Z,95632.58
2018-09-17T15:54:45.144Z,95627.55
2018-09-17T15:57:11.570Z,95628.09
2018-09-17T15:59:37.933Z,95633.35
2018-09-17T16:02:04.945Z,95634.00
2018-09-17T16:04:31.275Z,95636.86
2018-09-17T16:06:57.699Z,95635.53
2018-09-17T16:09:26.602Z,95639.11
2018-09-17T16:11:54.071Z,95633.16
2018-09-17T16:14:20.727Z,95638.73
2018-09-17T16:16:48.080Z,95642.71
2018-09-17T16:19:14.410Z,95642.28
2018-09-17T16:21:42.795Z,95638.05
2018-09-17T16:24:12.217Z,95633.63
2018-09-17T16:26:38.588Z,95640.13
2018-09-17T16:29:04.951Z,95643.82
2018-09-17T16:31:31.330Z,95640.08
2018-09-17T16:33:57.696Z,95638.51
2018-09-17T16:36:24.074Z,95638.09
2018-09-17T16:38:50.434Z,95635.28
2018-09-17T16:41:16.809Z,95641.28
2018-09-17T16:43:43.180Z,95641.42
2018-09-17T16:46:09.588Z,95638.93
2018-09-17T16:48:36.741Z,95643.81
2018-09-17T16:51:03.095Z,95649.16
2018-09-17T16:53:29.535Z,95643.58
2018-09-17T16:55:55.823Z,95651.38
2018-09-17T16:58:22.216Z,95655.05
2018-09-17T17:00:48.564Z,95654.37
2018-09-17T17:03:14.930Z,95653.06
2018-09-17T17:05:41.274Z,95651.23
2018-09-17T17:08:07.665Z,95654.73
2018-09-17T17:10:34.026Z,95656.87
2018-09-17T17:13:00.405Z,95658.52
2018-09-17T17:15:26.776Z,95660.94
2018-09-17T17:17:53.096Z,95665.22
2018-09-17T17:20:19.424Z,95665.81
2018-09-17T17:22:45.757Z,95667.92
2018-09-17T17:25:12.089Z,95666.91
2018-09-17T17:27:38.525Z,95661.44
2018-09-17T17:30:04.854Z,95659.36
2018-09-17T17:32:31.228Z,95658.08
2018-09-17T17:34:57.559Z,95665.68
2018-09-17T17:37:23.962Z,95661.80
2018-09-17T17:39:50.504Z,95658.89
2018-09-17T17:42:16.746Z,95666.05
2018-09-17T17:44:43.128Z,95663.05
2018-09-17T17:47:09.480Z,95670.84
2018-09-17T17:49:35.878Z,95679.84
2018-09-17T17:52:02.287Z,95677.77
2018-09-17T17:54:28.708Z,95682.47
2018-09-17T17:56:55.096Z,95687.76
2018-09-17T17:59:21.467Z,95684.81
2018-09-17T18:01:47.868Z,95685.08
2018-09-17T18:04:14.263Z,95687.89
2018-09-17T18:06:40.692Z,95679.68
2018-09-17T18:09:07.011Z,95696.86
2018-09-17T18:11:33.334Z,95700.65
2018-09-17T18:13:59.674Z,95696.30
2018-09-17T18:16:26.049Z,95698.70
2018-09-17T18:18:52.388Z,95700.54
2018-09-17T18:21:18.860Z,95710.59
2018-09-17T18:23:45.215Z,95709.02
2018-09-17T18:26:11.576Z,95706.80
2018-09-17T18:28:37.948Z,95698.73
2018-09-17T18:31:04.288Z,95702.53
2018-09-17T18:33:30.669Z,95705.36
2018-09-17T18:35:57.045Z,95705.80
2018-09-17T18:38:23.378Z,95699.68
2018-09-17T18:40:49.757Z,95704.84
2018-09-17T18:43:16.087Z,95701.14
2018-09-17T18:45:42.483Z,95700.97
2018-09-17T18:48:08.909Z,95702.44
2018-09-17T18:50:35.259Z,95705.60
2018-09-17T18:53:01.617Z,95703.48
2018-09-17T18:55:27.991Z,95702.66
2018-09-17T18:57:54.383Z,95704.07
2018-09-17T19:00:20.802Z,95697.47
2018-09-17T19:02:47.109Z,95699.41
2018-09-17T19:05:13.524Z,95688.80
2018-09-17T19:07:39.875Z,95697.47
2018-09-17T19:10:06.261Z,95695.30
2018-09-17T19:12:32.618Z,95703.19
2018-09-17T19:14:59.069Z,95701.14
2018-09-17T19:17:25.350Z,95699.63
2018-09-17T19:19:51.818Z,95708.20
2018-09-17T19:22:18.337Z,95703.08
2018-09-17T19:24:44.583Z,95710.87
2018-09-17T19:27:11.033Z,95713.03
2018-09-17T19:29:37.368Z,95718.83
2018-09-17T19:32:03.750Z,95711.25
2018-09-17T19:34:30.139Z,95713.70
2018-09-17T19:36:56.507Z,95712.17
2018-09-17T19:39:22.858Z,95717.66
2018-09-17T19:41:49.304Z,95718.16
2018-09-17T19:44:15.729Z,95716.97
2018-09-17T19:46:42.080Z,95714.88
2018-09-17T19:49:08.424Z,95717.92
2018-09-17T19:51:34.744Z,95711.98
2018-09-17T19:54:01.232Z,95710.12
2018-09-17T19:56:27.670Z,95713.44
2018-09-17T19:58:53.968Z,95713.06
2018-09-17T20:01:20.326Z,95719.09
2018-09-17T20:03:47.651Z,95713.23
2018-09-17T20:06:14.077Z,95716.27
2018-09-17T20:08:40.462Z,95715.70
2018-09-17T20:11:06.792Z,95719.95
2018-09-17T20:13:33.152Z,95720.73
2018-09-17T20:15:59.524Z,95719.98
2018-09-17T20:18:25.875Z,95720.45
2018-09-17T20:20:52.242Z,95728.36
2018-09-17T20:23:18.588Z,95724.95
2018-09-17T20:25:44.915Z,95731.56
2018-09-17T20:28:11.316Z,95740.68
2018-09-17T20:30:37.664Z,95740.17
2018-09-17T20:33:04.004Z,95739.77
2018-09-17T20:35:30.328Z,95748.95
2018-09-17T20:37:56.721Z,95746.80
2018-09-17T20:40:23.064Z,95739.27
2018-09-17T20:42:49.406Z,95747.09
2018-09-17T20:45:15.852Z,95741.27
2018-09-17T20:47:42.217Z,95739.16
2018-09-17T20:50:08.667Z,95738.73
2018-09-17T20:52:34.998Z,95739.19
2018-09-17T20:55:01.444Z,95739.69
2018-09-17T20:57:27.689Z,95744.27
2018-09-17T20:59:54.075Z,95738.75
2018-09-17T21:02:20.394Z,95741.03
2018-09-17T21:04:46.804Z,95745.20
2018-09-17T21:07:13.206Z,95744.86
2018-09-17T21:09:39.544Z,95742.88
2018-09-17T21:12:05.881Z,95744.37
2018-09-17T21:14:32.272Z,95747.11
2018-09-17T21:16:58.640Z,95737.00
2018-09-17T21:19:25.059Z,95737.97
2018-09-17T21:21:51.436Z,95740.30
2018-09-17T21:24:17.776Z,95746.95
2018-09-17T21:26:44.097Z,95753.15
2018-09-17T21:29:10.415Z,95751.91
2018-09-17T21:31:36.795Z,95760.88
2018-09-17T21:34:03.184Z,95756.77
2018-09-17T21:36:29.531Z,95759.84
2018-09-17T21:38:55.977Z,95759.70
2018-09-17T21:41:22.316Z,95761.04
2018-09-17T21:43:48.660Z,95757.59
2018-09-17T21:46:14.987Z,95759.54
2018-09-17T21:48:41.400Z,95760.88
2018-09-17T21:51:07.740Z,95756.34
2018-09-17T21:53:34.079Z,95759.41
2018-09-17T21:56:00.432Z,95752.76
2018-09-17T21:58:26.873Z,95760.03
2018-09-17T22:00:53.216Z,95757.98
2018-09-17T22:03:19.531Z,95757.28
2018-09-17T22:05:45.861Z,95759.15
2018-09-17T22:08:12.204Z,95758.52
2018-09-17T22:10:38.536Z,95766.51
2018-09-17T22:13:04.883Z,95764.92
2018-09-17T22:15:31.197Z,95761.05
2018-09-17T22:17:57.564Z,95763.26
2018-09-17T22:20:23.940Z,95762.92
2018-09-17T22:22:50.326Z,95769.07
2018-09-17T22:25:16.716Z,95765.87
2018-09-17T22:27:43.045Z,95761.00
2018-09-17T22:30:09.388Z,95756.81
2018-09-17T22:32:35.724Z,95759.54
2018-09-17T22:35:02.078Z,95762.58
2018-09-17T22:37:28.412Z,95760.62
2018-09-17T22:39:55.464Z,95757.63
2018-09-17T22:42:21.890Z,95763.77
2018-09-17T22:44:48.195Z,95753.46
2018-09-17T22:47:14.522Z,95756.53
2018-09-17T22:49:40.880Z,95757.91
2018-09-17T22:52:07.211Z,95758.02
2018-09-17T22:54:33.576Z,95759.31
2018-09-17T22:56:59.900Z,95765.75
2018-09-17T22:59:26.227Z,95766.37
2018-09-17T23:01:52.599Z,95762.80
2018-09-17T23:04:18.938Z,95758.01
2018-09-17T23:06:45.298Z,95764.29
2018-09-17T23:09:11.632Z,95764.33
2018-09-17T23:11:37.998Z,95771.34
2018-09-17T23:14:04.328Z,95765.69
2018-09-17T23:16:30.691Z,95768.14
2018-09-17T23:18:57.057Z,95772.33
2018-09-17T23:21:23.382Z,95769.38
2018-09-17T23:23:49.708Z,95773.28
2018-09-17T23:26:16.037Z,95767.00
2018-09-17T23:28:42.371Z,95771.28
2018-09-17T23:31:08.706Z,95772.16
2018-09-17T23:33:35.038Z,95769.32
2018-09-17T23:36:01.364Z,95772.02
2018-09-17T23:38:27.695Z,95764.37
2018-09-17T23:40:54.084Z,95765.13
2018-09-17T23:43:20.409Z,95768.27
2018-09-17T23:45:46.792Z,95762.03
2018-09-17T23:48:13.118Z,95757.75
2018-09-17T23:50:39.489Z,95755.63
2018-09-17T23:53:05.956Z,95753.98
2018-09-17T23:55:32.286Z,95754.93
2018-09-17T23:57:58.611Z,95751.89
